createdAt,value
2022-12-18T00:01:34.276Z,2.17
2022-12-18T00:04:01.174Z,2.03
2022-12-18T00:06:28.064Z,2.17
2022-12-18T00:08:54.460Z,2.07
2022-12-18T00:11:21.653Z,2.28
2022-12-18T00:13:47.937Z,2.19
2022-12-18T00:16:15.294Z,2.23
2022-12-18T00:18:42.071Z,2.25
2022-12-18T00:21:08.904Z,2.29
2022-12-18T00:23:36.037Z,2.15
2022-12-18T00:26:02.887Z,2.40
2022-12-18T00:28:29.162Z,2.41
2022-12-18T00:31:05.475Z,2.43
2022-12-18T00:33:31.876Z,2.14
2022-12-18T00:36:02.036Z,1.99
2022-12-18T00:38:28.321Z,1.96
2022-12-18T00:40:54.584Z,2.04
2022-12-18T00:43:20.857Z,2.21
2022-12-18T00:45:47.239Z,2.01
2022-12-18T00:48:13.750Z,1.95
2022-12-18T00:50:40.035Z,1.81
2022-12-18T00:53:06.363Z,1.77
2022-12-18T00:55:32.641Z,1.86
2022-12-18T00:57:58.901Z,2.10
2022-12-18T01:00:25.239Z,2.12
2022-12-18T01:02:51.641Z,2.08
2022-12-18T01:05:18.014Z,2.01
2022-12-18T01:07:44.321Z,2.04
2022-12-18T01:10:10.697Z,2.04
2022-12-18T01:12:36.968Z,1.98
2022-12-18T01:15:03.562Z,1.94
2022-12-18T01:17:29.880Z,1.89
2022-12-18T01:19:56.141Z,1.71
2022-12-18T01:22:22.406Z,1.59
2022-12-18T01:24:48.703Z,1.47
2022-12-18T01:27:16.771Z,1.46
2022-12-18T01:29:43.379Z,1.46
2022-12-18T01:32:09.721Z,1.42
2022-12-18T01:34:36.668Z,1.35
2022-12-18T01:37:04.013Z,1.44
2022-12-18T01:39:30.267Z,1.68
2022-12-18T01:42:02.360Z,1.68
2022-12-18T01:44:47.575Z,1.65
2022-12-18T01:47:19.206Z,1.73
2022-12-18T01:49:45.499Z,1.86
2022-12-18T01:52:11.762Z,1.94
2022-12-18T01:54:38.028Z,1.88
2022-12-18T01:57:04.296Z,1.82
2022-12-18T01:59:30.661Z,1.87
2022-12-18T02:01:57.181Z,1.84
2022-12-18T02:04:26.728Z,1.76
2022-12-18T02:07:00.524Z,1.76
2022-12-18T02:09:31.651Z,1.69
2022-12-18T02:12:00.586Z,1.75
2022-12-18T02:14:33.833Z,1.72
2022-12-18T02:17:08.067Z,1.85
2022-12-18T02:19:52.469Z,1.85
2022-12-18T02:22:36.398Z,1.94
2022-12-18T02:25:14.393Z,1.81
2022-12-18T02:27:40.692Z,1.52
2022-12-18T02:30:07.079Z,1.62
2022-12-18T02:32:40.447Z,1.32
2022-12-18T02:35:07.416Z,1.05
2022-12-18T02:37:33.696Z,1.09
2022-12-18T02:40:00.166Z,1.09
2022-12-18T02:42:26.662Z,1.33
2022-12-18T02:44:55.888Z,1.46
2022-12-18T02:47:22.870Z,1.57
2022-12-18T02:50:07.770Z,1.40
2022-12-18T02:52:43.205Z,1.53
2022-12-18T02:55:09.463Z,1.76
2022-12-18T02:57:37.676Z,1.83
2022-12-18T03:00:07.323Z,1.84
2022-12-18T03:02:36.763Z,2.00
2022-12-18T03:05:19.781Z,2.07
2022-12-18T03:07:51.531Z,1.94
2022-12-18T03:10:19.116Z,1.77
2022-12-18T03:13:01.063Z,1.68
2022-12-18T03:15:38.038Z,1.63
2022-12-18T03:18:05.533Z,1.81
2022-12-18T03:20:32.165Z,1.89
2022-12-18T03:23:00.403Z,1.82
2022-12-18T03:25:26.705Z,1.86
2022-12-18T03:27:54.141Z,1.96
2022-12-18T03:30:20.407Z,2.00
2022-12-18T03:32:51.308Z,2.13
2022-12-18T03:35:18.755Z,2.13
2022-12-18T03:37:45.030Z,2.09
2022-12-18T03:40:11.409Z,2.04
2022-12-18T03:42:50.837Z,2.04
2022-12-18T03:45:25.029Z,2.06
2022-12-18T03:47:51.228Z,2.02
2022-12-18T03:50:37.739Z,1.99
2022-12-18T03:53:07.811Z,2.08
2022-12-18T03:55:34.592Z,2.02
2022-12-18T03:58:00.918Z,1.95
2022-12-18T04:00:27.187Z,1.85
2022-12-18T04:02:54.116Z,1.93
2022-12-18T04:05:20.536Z,1.95
2022-12-18T04:07:47.658Z,2.00
2022-12-18T04:10:14.020Z,1.89
2022-12-18T04:12:40.300Z,2.10
2022-12-18T04:15:06.893Z,2.11
2022-12-18T04:17:33.167Z,1.92
2022-12-18T04:19:59.440Z,1.81
2022-12-18T04:22:25.727Z,1.64
2022-12-18T04:24:51.993Z,1.55
2022-12-18T04:27:18.262Z,1.44
2022-12-18T04:29:44.548Z,1.30
2022-12-18T04:32:10.979Z,1.38
2022-12-18T04:34:37.259Z,1.55
2022-12-18T04:37:03.561Z,1.66
2022-12-18T04:39:29.913Z,1.74
2022-12-18T04:41:56.191Z,1.72
2022-12-18T04:44:22.793Z,1.82
2022-12-18T04:46:49.313Z,1.91
2022-12-18T04:49:15.763Z,1.96
2022-12-18T04:51:42.020Z,1.93
2022-12-18T04:54:08.278Z,1.93
2022-12-18T04:56:34.587Z,1.88
2022-12-18T04:59:00.910Z,1.94
2022-12-18T05:01:34.070Z,1.93
2022-12-18T05:04:01.233Z,1.82
2022-12-18T05:06:27.563Z,1.92
2022-12-18T05:08:53.841Z,2.01
2022-12-18T05:11:20.176Z,1.96
2022-12-18T05:13:46.456Z,2.02
2022-12-18T05:16:12.965Z,2.10
2022-12-18T05:18:39.282Z,1.97
2022-12-18T05:21:05.661Z,1.92
2022-12-18T05:23:32.000Z,1.93
2022-12-18T05:25:58.976Z,1.85
2022-12-18T05:28:25.510Z,1.90
2022-12-18T05:30:52.331Z,1.82
2022-12-18T05:33:19.101Z,1.82
2022-12-18T05:35:45.387Z,1.73
2022-12-18T05:38:11.654Z,1.62
2022-12-18T05:40:37.914Z,1.56
2022-12-18T05:43:04.199Z,1.32
2022-12-18T05:45:30.479Z,1.30
2022-12-18T05:47:56.772Z,1.34
2022-12-18T05:50:23.356Z,1.33
2022-12-18T05:52:50.339Z,1.36
2022-12-18T05:55:16.606Z,1.43
2022-12-18T05:57:42.884Z,1.70
2022-12-18T06:00:09.572Z,1.89
2022-12-18T06:02:35.976Z,1.91
2022-12-18T06:05:02.379Z,1.97
2022-12-18T06:07:28.660Z,1.96
2022-12-18T06:09:55.000Z,1.96
2022-12-18T06:12:22.004Z,1.87
2022-12-18T06:14:48.273Z,1.80
2022-12-18T06:17:14.541Z,1.85
2022-12-18T06:19:40.855Z,1.78
2022-12-18T06:22:07.215Z,1.84
2022-12-18T06:24:34.014Z,1.93
2022-12-18T06:27:00.304Z,1.92
2022-12-18T06:29:26.582Z,1.87
2022-12-18T06:31:52.888Z,1.87
2022-12-18T06:34:19.214Z,1.98
2022-12-18T06:36:45.477Z,1.90
2022-12-18T06:39:11.757Z,1.82
2022-12-18T06:41:38.081Z,1.59
2022-12-18T06:44:06.707Z,1.53
2022-12-18T06:46:33.221Z,1.70
2022-12-18T06:48:59.529Z,1.67
2022-12-18T06:51:25.840Z,1.80
2022-12-18T06:53:52.109Z,1.91
2022-12-18T06:56:18.428Z,1.84
2022-12-18T06:58:44.747Z,1.70
2022-12-18T07:01:11.487Z,1.84
2022-12-18T07:03:38.710Z,2.03
2022-12-18T07:06:05.496Z,2.08
2022-12-18T07:08:31.852Z,1.96
2022-12-18T07:10:58.172Z,2.16
2022-12-18T07:13:24.462Z,2.12
2022-12-18T07:15:50.720Z,2.10
2022-12-18T07:18:16.979Z,2.14
2022-12-18T07:20:43.251Z,1.91
2022-12-18T07:23:09.645Z,2.02
2022-12-18T07:25:36.379Z,2.06
2022-12-18T07:28:02.719Z,2.11
2022-12-18T07:30:29.651Z,2.04
2022-12-18T07:32:55.993Z,1.74
2022-12-18T07:35:25.158Z,1.64
2022-12-18T07:37:51.828Z,1.63
2022-12-18T07:40:18.180Z,1.80
2022-12-18T07:42:44.455Z,1.93
2022-12-18T07:45:10.806Z,2.03
2022-12-18T07:47:37.289Z,2.03
2022-12-18T07:50:04.380Z,1.99
2022-12-18T07:52:30.657Z,2.06
2022-12-18T07:54:57.245Z,2.20
2022-12-18T07:57:48.949Z,2.25
2022-12-18T08:00:10.057Z,2.35
2022-12-18T08:02:36.452Z,2.33
2022-12-18T08:05:02.773Z,2.31
2022-12-18T08:07:29.131Z,2.31
2022-12-18T08:09:55.417Z,2.41
2022-12-18T08:12:21.686Z,2.35
2022-12-18T08:14:47.945Z,2.36
2022-12-18T08:17:14.499Z,2.38
2022-12-18T08:19:40.813Z,2.45
2022-12-18T08:22:07.092Z,2.52
2022-12-18T08:24:33.372Z,2.55
2022-12-18T08:27:27.803Z,2.67
2022-12-18T08:29:46.112Z,2.63
2022-12-18T08:32:12.439Z,2.71
2022-12-18T08:34:39.043Z,2.85
2022-12-18T08:37:05.376Z,3.00
2022-12-18T08:39:31.716Z,3.04
2022-12-18T08:42:16.665Z,3.05
2022-12-18T08:44:42.988Z,3.11
2022-12-18T08:47:09.272Z,3.21
2022-12-18T08:49:35.689Z,3.29
2022-12-18T08:52:03.565Z,3.37
2022-12-18T08:54:29.887Z,3.42
2022-12-18T08:56:56.191Z,3.52
2022-12-18T08:59:22.513Z,3.60
2022-12-18T09:01:49.173Z,3.76
2022-12-18T09:04:15.583Z,3.69
2022-12-18T09:06:41.853Z,3.62
2022-12-18T09:09:08.213Z,3.69
2022-12-18T09:11:34.483Z,3.70
2022-12-18T09:14:00.844Z,3.68
2022-12-18T09:16:32.245Z,3.64
2022-12-18T09:19:01.885Z,3.64
2022-12-18T09:21:29.157Z,3.61
2022-12-18T09:23:55.553Z,3.66
2022-12-18T09:26:22.144Z,3.74
2022-12-18T09:28:48.488Z,3.82
2022-12-18T09:31:15.023Z,3.90
2022-12-18T09:33:41.442Z,4.00
2022-12-18T09:36:08.663Z,4.20
2022-12-18T09:38:35.046Z,4.23
2022-12-18T09:41:19.604Z,4.18
2022-12-18T09:43:46.933Z,4.12
2022-12-18T09:46:16.999Z,4.04
2022-12-18T09:48:43.863Z,3.96
2022-12-18T09:51:13.324Z,3.91
2022-12-18T09:53:39.588Z,4.02
2022-12-18T09:56:05.940Z,4.14
2022-12-18T09:58:33.018Z,4.15
2022-12-18T10:00:59.355Z,4.15
2022-12-18T10:03:25.640Z,4.14
2022-12-18T10:05:57.952Z,4.20
2022-12-18T10:08:34.816Z,4.20
2022-12-18T10:11:24.324Z,4.18
2022-12-18T10:13:53.293Z,4.23
2022-12-18T10:16:36.837Z,4.29
2022-12-18T10:19:15.288Z,4.48
2022-12-18T10:22:03.255Z,4.48
2022-12-18T10:24:33.534Z,4.55
2022-12-18T10:27:14.832Z,4.51
2022-12-18T10:29:41.568Z,4.68
2022-12-18T10:32:08.037Z,4.73
2022-12-18T10:34:34.871Z,4.89
2022-12-18T10:37:01.910Z,4.87
2022-12-18T10:39:28.206Z,4.82
2022-12-18T10:42:10.180Z,5.05
2022-12-18T10:44:36.462Z,4.94
2022-12-18T10:47:10.176Z,5.07
2022-12-18T10:49:37.895Z,5.16
2022-12-18T10:52:17.820Z,5.17
2022-12-18T10:54:51.626Z,5.24
2022-12-18T10:57:18.874Z,5.24
2022-12-18T10:59:52.275Z,5.26
2022-12-18T11:02:38.978Z,5.32
2022-12-18T11:05:24.402Z,5.38
2022-12-18T11:07:55.020Z,5.46
2022-12-18T11:10:21.976Z,5.53
2022-12-18T11:12:48.430Z,5.60
2022-12-18T11:15:19.832Z,5.67
2022-12-18T11:17:46.138Z,5.65
2022-12-18T11:20:21.516Z,5.69
2022-12-18T11:23:01.009Z,5.70
2022-12-18T11:25:33.411Z,5.64
2022-12-18T11:28:04.513Z,5.43
2022-12-18T11:30:31.642Z,5.49
2022-12-18T11:33:05.490Z,5.52
2022-12-18T11:35:34.852Z,5.62
2022-12-18T11:40:49.008Z,5.59
2022-12-18T11:43:21.408Z,5.73
2022-12-18T11:45:52.191Z,5.85
2022-12-18T11:48:20.017Z,5.83
2022-12-18T11:50:46.271Z,5.77
2022-12-18T11:53:12.647Z,5.82
2022-12-18T11:55:57.537Z,5.90
2022-12-18T11:58:32.975Z,5.90
2022-12-18T12:01:03.653Z,5.94
2022-12-18T12:03:32.673Z,5.96
2022-12-18T12:06:15.532Z,6.06
2022-12-18T12:09:08.044Z,6.17
2022-12-18T12:12:03.486Z,6.29
2022-12-18T12:14:32.484Z,6.32
2022-12-18T12:17:18.984Z,6.26
2022-12-18T12:19:48.003Z,6.37
2022-12-18T12:22:29.412Z,6.39
2022-12-18T12:25:01.858Z,6.25
2022-12-18T12:27:31.802Z,6.27
2022-12-18T12:30:03.405Z,6.31
2022-12-18T12:32:48.544Z,6.45
2022-12-18T12:35:18.918Z,6.53
2022-12-18T12:38:00.452Z,6.54
2022-12-18T12:40:51.347Z,6.59
2022-12-18T12:43:16.773Z,6.68
2022-12-18T12:45:50.608Z,6.69
2022-12-18T12:48:18.500Z,6.74
2022-12-18T12:50:45.440Z,6.63
2022-12-18T12:53:23.243Z,6.60
2022-12-18T12:55:49.653Z,6.63
2022-12-18T12:58:17.937Z,6.61
2022-12-18T13:00:47.369Z,6.64
2022-12-18T13:03:17.029Z,6.60
2022-12-18T13:05:52.827Z,6.59
2022-12-18T13:08:26.423Z,6.47
2022-12-18T13:11:14.357Z,6.37
2022-12-18T13:13:52.924Z,6.32
2022-12-18T13:16:19.669Z,6.30
2022-12-18T13:18:49.457Z,6.07
2022-12-18T13:21:20.180Z,6.12
2022-12-18T13:23:46.776Z,6.08
2022-12-18T13:26:27.979Z,5.82
2022-12-18T13:28:55.619Z,5.74
2022-12-18T13:31:40.332Z,5.71
2022-12-18T13:34:29.519Z,5.71
2022-12-18T13:36:57.200Z,5.74
2022-12-18T13:39:28.897Z,5.82
2022-12-18T13:42:06.912Z,5.94
2022-12-18T13:44:40.622Z,5.97
2022-12-18T13:47:26.326Z,6.01
2022-12-18T13:49:52.692Z,6.06
2022-12-18T13:52:25.019Z,6.04
2022-12-18T13:54:55.101Z,5.86
2022-12-18T13:57:28.936Z,5.88
2022-12-18T13:59:55.366Z,5.85
2022-12-18T14:02:23.098Z,5.62
2022-12-18T14:04:50.119Z,5.57
2022-12-18T14:07:18.008Z,5.67
2022-12-18T14:09:49.881Z,5.70
2022-12-18T14:12:35.727Z,5.75
2022-12-18T14:15:02.009Z,5.74
2022-12-18T14:17:28.278Z,5.86
2022-12-18T14:19:54.879Z,5.86
2022-12-18T14:22:22.118Z,5.88
2022-12-18T14:24:48.489Z,5.81
2022-12-18T14:27:22.199Z,5.56
2022-12-18T14:29:48.475Z,5.31
2022-12-18T14:32:18.713Z,5.29
2022-12-18T14:34:52.251Z,5.21
2022-12-18T14:37:20.943Z,5.19
2022-12-18T14:39:57.881Z,5.10
2022-12-18T14:42:24.368Z,5.08
2022-12-18T14:45:12.467Z,5.25
2022-12-18T14:47:36.939Z,5.38
2022-12-18T14:50:03.273Z,5.34
2022-12-18T14:52:29.926Z,5.34
2022-12-18T14:54:56.213Z,5.54
2022-12-18T14:57:24.023Z,5.61
2022-12-18T14:59:50.431Z,5.71
2022-12-18T15:02:23.992Z,5.71
2022-12-18T15:05:08.455Z,5.68
2022-12-18T15:07:42.569Z,5.64
2022-12-18T15:10:08.823Z,5.53
2022-12-18T15:12:36.043Z,5.54
2022-12-18T15:15:02.383Z,5.64
2022-12-18T15:17:28.688Z,5.73
2022-12-18T15:19:59.546Z,5.68
2022-12-18T15:22:26.988Z,5.58
2022-12-18T15:24:53.401Z,5.52
2022-12-18T15:27:36.581Z,5.45
2022-12-18T15:30:11.076Z,5.42
2022-12-18T15:32:37.528Z,5.36
2022-12-18T15:35:14.035Z,5.39
2022-12-18T15:37:40.323Z,5.47
2022-12-18T15:40:07.872Z,5.37
2022-12-18T15:42:52.836Z,5.44
2022-12-18T15:45:19.270Z,5.40
2022-12-18T15:47:46.247Z,5.31
2022-12-18T15:50:12.599Z,5.29
2022-12-18T15:52:45.291Z,5.18
2022-12-18T15:55:31.328Z,5.19
2022-12-18T15:57:57.776Z,5.26
2022-12-18T16:00:24.083Z,5.23
2022-12-18T16:02:50.649Z,5.28
2022-12-18T16:05:17.899Z,5.32
2022-12-18T16:07:44.641Z,5.26
2022-12-18T16:10:11.025Z,5.25
2022-12-18T16:12:37.291Z,5.27
2022-12-18T16:15:03.928Z,5.27
2022-12-18T16:17:30.284Z,5.34
2022-12-18T16:19:56.557Z,5.19
2022-12-18T16:22:26.448Z,5.15
2022-12-18T16:24:52.901Z,5.12
2022-12-18T16:27:19.521Z,5.10
2022-12-18T16:29:45.787Z,5.26
2022-12-18T16:32:15.927Z,5.31
2022-12-18T16:34:43.052Z,5.23
2022-12-18T16:37:09.440Z,5.04
2022-12-18T16:39:36.084Z,4.98
2022-12-18T16:42:06.039Z,4.97
2022-12-18T16:44:32.828Z,5.04
2022-12-18T16:47:02.596Z,5.13
2022-12-18T16:49:29.054Z,5.31
2022-12-18T16:51:55.367Z,5.10
2022-12-18T16:54:21.635Z,4.86
2022-12-18T16:56:49.842Z,5.00
2022-12-18T16:59:16.152Z,4.93
2022-12-18T17:01:42.556Z,4.86
2022-12-18T17:04:09.096Z,4.99
2022-12-18T17:06:36.221Z,5.02
2022-12-18T17:09:03.393Z,5.05
2022-12-18T17:11:31.021Z,5.11
2022-12-18T17:13:57.322Z,5.32
2022-12-18T17:16:24.625Z,5.43
2022-12-18T17:18:50.934Z,5.23
2022-12-18T17:21:17.645Z,5.13
2022-12-18T17:23:44.283Z,5.12
2022-12-18T17:26:11.177Z,5.16
2022-12-18T17:28:37.655Z,5.06
2022-12-18T17:31:10.374Z,4.96
2022-12-18T17:33:36.731Z,5.04
2022-12-18T17:36:03.050Z,5.07
2022-12-18T17:38:29.340Z,5.07
2022-12-18T17:41:00.098Z,5.06
2022-12-18T17:43:26.361Z,5.19
2022-12-18T17:45:52.644Z,5.25
2022-12-18T17:48:18.932Z,5.07
2022-12-18T17:50:45.783Z,5.14
2022-12-18T17:53:12.240Z,5.09
2022-12-18T17:55:38.507Z,5.00
2022-12-18T17:58:04.779Z,5.13
2022-12-18T18:00:31.164Z,5.10
2022-12-18T18:02:57.681Z,4.93
2022-12-18T18:05:24.145Z,5.08
2022-12-18T18:07:50.466Z,4.88
2022-12-18T18:10:18.880Z,5.04
2022-12-18T18:13:03.418Z,5.04
2022-12-18T18:15:29.696Z,4.82
2022-12-18T18:17:55.983Z,4.67
2022-12-18T18:20:22.804Z,4.81
2022-12-18T18:22:49.546Z,4.87
2022-12-18T18:25:16.872Z,4.83
2022-12-18T18:27:44.370Z,4.85
2022-12-18T18:30:13.693Z,4.90
2022-12-18T18:32:40.268Z,4.79
2022-12-18T18:35:12.387Z,4.90
2022-12-18T18:37:47.587Z,5.06
2022-12-18T18:40:13.871Z,5.18
2022-12-18T18:42:40.129Z,5.36
2022-12-18T18:45:06.556Z,5.36
2022-12-18T18:47:32.836Z,5.33
2022-12-18T18:49:59.243Z,5.31
2022-12-18T18:52:25.605Z,5.23
2022-12-18T18:55:12.302Z,5.45
2022-12-18T18:57:38.160Z,5.58
2022-12-18T19:00:04.744Z,5.58
2022-12-18T19:02:31.092Z,5.79
2022-12-18T19:04:57.829Z,5.90
2022-12-18T19:07:30.222Z,5.88
2022-12-18T19:09:57.147Z,5.83
2022-12-18T19:12:44.465Z,5.82
2022-12-18T19:15:10.738Z,5.82
2022-12-18T19:17:40.048Z,5.66
2022-12-18T19:20:06.788Z,5.68
2022-12-18T19:22:34.688Z,5.67
2022-12-18T19:25:01.016Z,5.48
2022-12-18T19:27:27.295Z,5.54
2022-12-18T19:29:53.572Z,5.54
2022-12-18T19:32:19.944Z,5.68
2022-12-18T19:34:46.497Z,5.73
2022-12-18T19:37:14.329Z,5.69
2022-12-18T19:39:40.630Z,5.87
2022-12-18T19:42:06.879Z,5.84
2022-12-18T19:44:33.176Z,5.67
2022-12-18T19:46:59.436Z,5.57
2022-12-18T19:49:25.705Z,5.48
2022-12-18T19:51:52.019Z,5.31
2022-12-18T19:54:18.381Z,5.34
2022-12-18T19:56:44.897Z,5.54
2022-12-18T19:59:11.157Z,5.65
2022-12-18T20:01:37.559Z,5.65
2022-12-18T20:04:04.424Z,5.68
2022-12-18T20:06:32.446Z,5.83
2022-12-18T20:09:00.418Z,5.91
2022-12-18T20:11:27.087Z,6.00
2022-12-18T20:13:53.362Z,6.18
2022-12-18T20:16:19.804Z,6.32
2022-12-18T20:18:46.203Z,6.38
2022-12-18T20:21:14.197Z,6.49
2022-12-18T20:23:41.094Z,6.57
2022-12-18T20:26:07.804Z,6.62
2022-12-18T20:28:35.038Z,6.60
2022-12-18T20:31:01.759Z,6.36
2022-12-18T20:33:28.058Z,6.29
2022-12-18T20:35:54.450Z,6.35
2022-12-18T20:38:21.592Z,6.46
2022-12-18T20:40:49.948Z,6.48
2022-12-18T20:43:17.523Z,6.52
2022-12-18T20:45:43.916Z,6.61
2022-12-18T20:48:12.136Z,6.49
2022-12-18T20:50:38.443Z,6.54
2022-12-18T20:53:04.795Z,6.57
2022-12-18T20:55:31.127Z,6.65
2022-12-18T20:57:58.001Z,6.65
2022-12-18T21:00:24.293Z,6.76
2022-12-18T21:02:50.712Z,6.75
2022-12-18T21:05:17.150Z,6.48
2022-12-18T21:07:43.498Z,6.27
2022-12-18T21:10:09.854Z,6.43
2022-12-18T21:12:43.930Z,6.58
2022-12-18T21:15:28.325Z,6.80
2022-12-18T21:17:55.131Z,6.82
2022-12-18T21:20:21.429Z,6.74
2022-12-18T21:22:49.138Z,6.73
2022-12-18T21:25:15.416Z,6.79
2022-12-18T21:27:41.676Z,6.77
2022-12-18T21:30:08.369Z,6.78
2022-12-18T21:32:34.877Z,6.95
2022-12-18T21:35:01.150Z,6.90
2022-12-18T21:37:27.437Z,6.83
2022-12-18T21:39:53.729Z,6.89
2022-12-18T21:42:38.451Z,6.94
2022-12-18T21:45:04.841Z,6.96
2022-12-18T21:47:31.299Z,7.02
2022-12-18T21:49:57.588Z,7.02
2022-12-18T21:52:31.695Z,7.09
2022-12-18T21:55:03.094Z,7.05
2022-12-18T21:57:34.545Z,6.92
2022-12-18T22:00:01.948Z,6.77
2022-12-18T22:02:28.440Z,7.00
2022-12-18T22:04:54.800Z,7.13
2022-12-18T22:07:21.538Z,7.30
2022-12-18T22:09:49.416Z,7.07
2022-12-18T22:12:34.984Z,7.06
2022-12-18T22:15:01.676Z,7.04
2022-12-18T22:17:27.941Z,7.16
2022-12-18T22:19:54.420Z,7.27
2022-12-18T22:22:20.854Z,7.43
2022-12-18T22:24:47.117Z,7.27
2022-12-18T22:27:13.373Z,7.20
2022-12-18T22:29:58.065Z,7.32
2022-12-18T22:32:30.763Z,7.14
2022-12-18T22:35:03.263Z,7.02
2022-12-18T22:37:32.472Z,6.94
2022-12-18T22:39:58.744Z,7.23
2022-12-18T22:42:25.261Z,7.14
2022-12-18T22:44:51.553Z,7.02
2022-12-18T22:47:17.922Z,7.06
2022-12-18T22:49:44.184Z,7.00
2022-12-18T22:52:10.537Z,6.66
2022-12-18T22:54:36.849Z,6.69
2022-12-18T22:57:03.252Z,6.94
2022-12-18T22:59:29.527Z,7.08
2022-12-18T23:01:58.599Z,7.43
2022-12-18T23:04:33.447Z,7.61
2022-12-18T23:07:02.620Z,7.66
2022-12-18T23:09:28.897Z,7.71
2022-12-18T23:11:55.188Z,7.78
2022-12-18T23:14:21.478Z,7.75
2022-12-18T23:16:47.795Z,7.76
2022-12-18T23:19:16.182Z,7.86
2022-12-18T23:21:42.442Z,7.87
2022-12-18T23:24:08.804Z,7.91
2022-12-18T23:26:35.312Z,7.77
2022-12-18T23:29:01.672Z,7.53
2022-12-18T23:31:28.707Z,7.21
2022-12-18T23:33:55.433Z,7.18
2022-12-18T23:36:22.101Z,7.23
2022-12-18T23:38:52.347Z,7.48
2022-12-18T23:41:19.245Z,7.61
2022-12-18T23:43:45.613Z,7.80
2022-12-18T23:46:13.824Z,7.76
2022-12-18T23:48:40.167Z,7.76
2022-12-18T23:51:10.011Z,7.81
2022-12-18T23:53:36.276Z,7.87
2022-12-18T23:56:02.739Z,7.98
2022-12-18T23:58:30.033Z,8.06
